createdAt,value
2018-08-23T00:02:32.233Z,25.12
2018-08-23T00:05:01.930Z,25.12
2018-08-23T00:07:30.395Z,25.12
2018-08-23T00:10:01.490Z,25.07
2018-08-23T00:12:40.211Z,25.03
2018-08-23T00:15:09.437Z,25.00
2018-08-23T00:17:41.987Z,24.96
2018-08-23T00:20:10.426Z,24.93
2018-08-23T00:22:38.880Z,24.91
2018-08-23T00:25:07.314Z,24.89
2018-08-23T00:27:35.774Z,24.89
2018-08-23T00:30:04.210Z,24.86
2018-08-23T00:32:32.665Z,24.87
2018-08-23T00:35:01.236Z,24.86
2018-08-23T00:37:29.699Z,24.83
2018-08-23T00:40:02.290Z,24.81
2018-08-23T00:42:30.642Z,24.80
2018-08-23T00:45:00.552Z,24.78
2018-08-23T00:47:33.283Z,24.81
2018-08-23T00:50:01.721Z,24.81
2018-08-23T00:52:38.370Z,24.83
2018-08-23T00:55:18.874Z,24.79
2018-08-23T00:57:48.341Z,24.77
2018-08-23T01:00:17.274Z,24.75
2018-08-23T01:02:50.968Z,24.71
2018-08-23T01:05:24.719Z,24.70
2018-08-23T01:07:53.240Z,24.69
2018-08-23T01:10:21.728Z,24.66
2018-08-23T01:12:55.840Z,24.65
2018-08-23T01:15:24.602Z,24.62
2018-08-23T01:18:07.582Z,24.58
2018-08-23T01:20:36.449Z,24.56
2018-08-23T01:23:05.265Z,24.52
2018-08-23T01:25:37.955Z,24.47
2018-08-23T01:28:08.499Z,24.44
2018-08-23T01:30:38.409Z,24.39
2018-08-23T01:33:10.095Z,24.37
2018-08-23T01:35:43.067Z,24.33
2018-08-23T01:38:12.222Z,24.31
2018-08-23T01:40:41.014Z,24.26
2018-08-23T01:43:09.763Z,24.25
2018-08-23T01:47:07.840Z,24.21
2018-08-23T01:49:36.320Z,24.15
2018-08-23T01:52:05.015Z,24.13
2018-08-23T01:54:33.843Z,24.09
2018-08-23T01:57:03.081Z,24.05
2018-08-23T01:59:31.788Z,23.99
2018-08-23T02:02:04.714Z,23.97
2018-08-23T02:04:33.447Z,23.93
2018-08-23T02:07:02.342Z,23.93
2018-08-23T02:09:31.025Z,23.93
2018-08-23T02:11:59.807Z,23.93
2018-08-23T02:14:39.959Z,23.89
2018-08-23T02:17:08.689Z,23.86
2018-08-23T02:19:45.841Z,23.84
2018-08-23T02:22:14.796Z,23.82
2018-08-23T02:24:47.435Z,23.82
2018-08-23T02:27:17.648Z,23.82
2018-08-23T02:29:48.561Z,23.80
2018-08-23T02:32:17.422Z,23.75
2018-08-23T02:34:47.260Z,23.75
2018-08-23T02:37:17.204Z,23.78
2018-08-23T02:39:46.800Z,23.73
2018-08-23T02:42:17.648Z,23.74
2018-08-23T02:44:51.422Z,23.71
2018-08-23T02:47:20.522Z,23.67
2018-08-23T02:49:49.217Z,23.64
2018-08-23T02:52:18.580Z,23.58
2018-08-23T02:54:47.377Z,23.51
2018-08-23T02:57:16.023Z,23.43
2018-08-23T02:59:44.690Z,23.44
2018-08-23T03:02:14.717Z,23.49
2018-08-23T03:04:43.476Z,23.46
2018-08-23T03:07:12.223Z,23.41
2018-08-23T03:09:45.968Z,23.42
2018-08-23T03:12:17.709Z,23.38
2018-08-23T03:14:47.527Z,23.38
2018-08-23T03:17:21.908Z,23.42
2018-08-23T03:20:07.471Z,23.46
2018-08-23T03:22:38.032Z,23.40
2018-08-23T03:25:09.297Z,23.44
2018-08-23T03:27:38.606Z,23.44
2018-08-23T03:30:11.008Z,23.50
2018-08-23T03:32:39.926Z,23.53
2018-08-23T03:35:09.357Z,23.54
2018-08-23T03:37:38.831Z,23.50
2018-08-23T03:40:08.837Z,23.47
2018-08-23T03:42:38.343Z,23.43
2018-08-23T03:45:15.819Z,23.46
2018-08-23T03:47:53.137Z,23.43
2018-08-23T03:53:10.490Z,23.47
2018-08-23T03:55:39.533Z,23.48
2018-08-23T03:58:08.244Z,23.42
2018-08-23T04:00:59.407Z,23.40
2018-08-23T04:03:28.073Z,23.36
2018-08-23T04:06:08.380Z,23.33
2018-08-23T04:08:37.077Z,23.27
2018-08-23T04:11:06.898Z,23.29
2018-08-23T04:13:36.368Z,23.36
2018-08-23T04:16:05.249Z,23.22
2018-08-23T04:18:33.926Z,23.11
2018-08-23T04:21:02.497Z,23.03
2018-08-23T04:23:31.241Z,22.91
2018-08-23T04:26:00.922Z,22.82
2018-08-23T04:28:29.896Z,22.83
2018-08-23T04:30:58.598Z,22.82
2018-08-23T04:33:27.870Z,22.68
2018-08-23T04:35:56.546Z,22.63
2018-08-23T04:38:25.158Z,22.66
2018-08-23T04:41:05.234Z,22.65
2018-08-23T04:43:35.078Z,22.73
2018-08-23T04:46:05.986Z,22.71
2018-08-23T04:48:34.654Z,22.64
2018-08-23T04:51:03.096Z,22.63
2018-08-23T04:53:31.643Z,22.63
2018-08-23T04:56:01.581Z,22.72
2018-08-23T04:58:30.200Z,22.70
2018-08-23T05:00:58.839Z,22.79
2018-08-23T05:03:28.537Z,22.85
2018-08-23T05:05:57.187Z,22.89
2018-08-23T05:08:25.844Z,22.81
2018-08-23T05:10:55.924Z,22.60
2018-08-23T05:13:25.649Z,22.62
2018-08-23T05:15:54.293Z,22.67
2018-08-23T05:18:22.894Z,22.66
2018-08-23T05:20:51.515Z,22.65
2018-08-23T05:23:20.788Z,22.65
2018-08-23T05:25:51.735Z,22.67
2018-08-23T05:28:20.885Z,22.70
2018-08-23T05:30:51.332Z,22.74
2018-08-23T05:33:21.854Z,22.81
2018-08-23T05:35:50.862Z,22.86
2018-08-23T05:38:20.299Z,22.86
2018-08-23T05:41:00.850Z,22.89
2018-08-23T05:43:30.007Z,22.89
2018-08-23T05:45:58.645Z,22.87
2018-08-23T05:48:30.059Z,22.79
2018-08-23T05:51:02.486Z,22.77
2018-08-23T05:53:31.020Z,22.77
2018-08-23T05:56:00.552Z,22.76
2018-08-23T05:58:31.291Z,22.75
2018-08-23T06:01:00.527Z,22.80
2018-08-23T06:03:29.111Z,22.87
2018-08-23T06:05:58.004Z,22.91
2018-08-23T06:08:26.691Z,22.95
2018-08-23T06:11:11.350Z,22.98
2018-08-23T06:13:40.802Z,22.99
2018-08-23T06:16:10.211Z,23.03
2018-08-23T06:18:38.880Z,23.09
2018-08-23T06:21:08.266Z,23.14
2018-08-23T06:24:08.166Z,23.16
2018-08-23T06:26:43.751Z,23.22
2018-08-23T06:29:29.557Z,23.27
2018-08-23T06:32:04.285Z,23.33
2018-08-23T06:34:51.022Z,23.38
2018-08-23T06:37:20.535Z,23.41
2018-08-23T06:39:48.964Z,23.43
2018-08-23T06:42:32.976Z,23.44
2018-08-23T06:45:01.598Z,23.48
2018-08-23T06:47:30.048Z,23.55
2018-08-23T06:49:58.556Z,23.57
2018-08-23T06:52:50.091Z,23.61
2018-08-23T06:55:30.412Z,23.67
2018-08-23T06:58:00.330Z,23.74
2018-08-23T07:00:28.923Z,23.77
2018-08-23T07:02:57.618Z,23.83
2018-08-23T07:05:29.265Z,23.87
2018-08-23T07:07:58.036Z,23.92
2018-08-23T07:10:30.658Z,23.96
2018-08-23T07:12:59.404Z,24.00
2018-08-23T07:15:27.893Z,24.07
2018-08-23T07:18:06.100Z,24.15
2018-08-23T07:20:36.556Z,24.22
2018-08-23T07:23:11.609Z,24.24
2018-08-23T07:25:52.496Z,24.30
2018-08-23T07:28:21.392Z,24.40
2018-08-23T07:30:49.975Z,24.49
2018-08-23T07:33:18.455Z,24.61
2018-08-23T07:36:55.557Z,24.67
2018-08-23T07:39:24.812Z,24.78
2018-08-23T07:41:53.375Z,24.83
2018-08-23T07:44:21.855Z,24.90
2018-08-23T07:46:50.488Z,24.95
2018-08-23T07:49:19.003Z,24.99
2018-08-23T07:51:47.450Z,25.07
2018-08-23T07:54:17.609Z,25.18
2018-08-23T07:56:46.465Z,25.27
2018-08-23T07:59:15.198Z,25.37
2018-08-23T08:01:43.710Z,25.40
2018-08-23T08:04:12.299Z,25.42
2018-08-23T08:06:49.677Z,25.43
2018-08-23T08:12:17.914Z,25.53
2018-08-23T08:14:46.474Z,25.58
2018-08-23T08:17:20.091Z,25.66
2018-08-23T08:19:57.778Z,25.68
2018-08-23T08:22:26.521Z,25.75
2018-08-23T08:25:00.260Z,25.81
2018-08-23T08:27:29.245Z,25.91
2018-08-23T08:29:57.743Z,25.97
2018-08-23T08:32:26.271Z,26.03
2018-08-23T08:34:57.278Z,26.14
2018-08-23T08:37:25.904Z,26.27
2018-08-23T08:39:54.384Z,26.39
2018-08-23T08:42:33.414Z,26.49
2018-08-23T08:45:10.857Z,26.59
2018-08-23T08:47:40.374Z,26.69
2018-08-23T08:50:08.870Z,26.76
2018-08-23T08:52:37.385Z,26.84
2018-08-23T08:55:07.737Z,27.03
2018-08-23T08:57:41.144Z,27.20
2018-08-23T09:00:09.877Z,27.26
2018-08-23T09:02:38.429Z,27.36
2018-08-23T09:05:07.003Z,27.50
2018-08-23T09:07:36.583Z,27.62
2018-08-23T09:10:05.942Z,27.68
2018-08-23T09:12:38.503Z,27.71
2018-08-23T09:15:07.015Z,27.84
2018-08-23T09:17:42.032Z,27.97
2018-08-23T09:20:11.723Z,28.10
2018-08-23T09:22:41.383Z,28.21
2018-08-23T09:25:15.985Z,28.31
2018-08-23T09:27:45.072Z,28.46
2018-08-23T09:30:18.687Z,28.52
2018-08-23T09:32:47.215Z,28.66
2018-08-23T09:35:15.851Z,28.77
2018-08-23T09:37:44.369Z,28.87
2018-08-23T09:40:12.793Z,28.97
2018-08-23T09:42:41.261Z,29.00
2018-08-23T09:45:17.687Z,29.13
2018-08-23T09:47:46.247Z,29.28
2018-08-23T09:50:14.757Z,29.45
2018-08-23T09:52:57.837Z,29.56
2018-08-23T09:55:30.698Z,29.61
2018-08-23T09:57:59.559Z,29.64
2018-08-23T10:00:33.335Z,29.74
2018-08-23T10:03:07.160Z,29.90
2018-08-23T10:05:47.089Z,30.09
2018-08-23T10:08:21.478Z,30.25
2018-08-23T10:10:55.290Z,30.42
2018-08-23T10:13:28.945Z,30.53
2018-08-23T10:16:02.607Z,30.85
2018-08-23T10:18:36.132Z,31.04
2018-08-23T10:21:04.845Z,31.11
2018-08-23T10:23:33.484Z,31.29
2018-08-23T10:26:33.366Z,31.44
2018-08-23T10:29:01.828Z,31.58
2018-08-23T10:31:30.330Z,31.77
2018-08-23T10:33:58.786Z,31.96
2018-08-23T10:36:27.221Z,32.20
2018-08-23T10:38:55.750Z,32.32
2018-08-23T10:41:24.396Z,32.44
2018-08-23T10:43:52.922Z,32.75
2018-08-23T10:46:21.606Z,32.92
2018-08-23T10:48:50.114Z,33.10
2018-08-23T10:51:18.661Z,33.43
2018-08-23T10:53:47.180Z,33.64
2018-08-23T10:56:15.783Z,33.78
2018-08-23T10:58:44.338Z,33.76
2018-08-23T11:01:12.855Z,33.82
2018-08-23T11:03:41.327Z,34.03
2018-08-23T11:06:09.834Z,34.35
2018-08-23T11:08:39.066Z,34.64
2018-08-23T11:11:12.875Z,34.68
2018-08-23T11:13:46.296Z,34.78
2018-08-23T11:16:20.118Z,35.03
2018-08-23T11:18:53.924Z,35.19
2018-08-23T11:21:22.386Z,35.35
2018-08-23T11:23:50.991Z,35.45
2018-08-23T11:26:22.332Z,35.61
2018-08-23T11:28:51.456Z,35.65
2018-08-23T11:31:25.571Z,35.62
2018-08-23T11:33:54.356Z,35.86
2018-08-23T11:36:23.693Z,36.09
2018-08-23T11:38:53.447Z,35.96
2018-08-23T11:41:22.893Z,36.01
2018-08-23T11:43:51.503Z,35.54
2018-08-23T11:46:21.089Z,35.50
2018-08-23T11:48:49.917Z,35.74
2018-08-23T11:51:19.080Z,36.21
2018-08-23T11:53:47.865Z,36.40
2018-08-23T11:56:16.446Z,36.36
2018-08-23T11:58:44.922Z,36.24
2018-08-23T12:01:14.867Z,36.23
2018-08-23T12:03:43.691Z,36.37
2018-08-23T12:06:13.183Z,36.55
2018-08-23T12:08:42.024Z,36.64
2018-08-23T12:11:10.516Z,36.63
2018-08-23T12:13:39.320Z,36.80
2018-08-23T12:16:08.519Z,36.89
2018-08-23T12:18:37.862Z,36.92
2018-08-23T12:21:06.759Z,37.01
2018-08-23T12:23:35.308Z,36.94
2018-08-23T12:26:03.940Z,36.98
2018-08-23T12:28:37.756Z,36.97
2018-08-23T12:31:06.143Z,37.08
2018-08-23T12:33:36.415Z,37.32
2018-08-23T12:36:08.140Z,37.35
2018-08-23T12:38:42.732Z,37.45
2018-08-23T12:41:16.462Z,37.69
2018-08-23T12:43:48.573Z,37.74
2018-08-23T12:46:18.650Z,37.73
2018-08-23T12:48:53.728Z,37.69
2018-08-23T12:51:22.622Z,37.49
2018-08-23T12:53:51.500Z,37.64
2018-08-23T12:56:22.095Z,37.72
2018-08-23T12:58:51.746Z,37.74
2018-08-23T13:01:21.602Z,38.06
2018-08-23T13:03:50.991Z,38.26
2018-08-23T13:06:19.953Z,38.10
2018-08-23T13:08:48.737Z,37.22
2018-08-23T13:11:17.337Z,36.28
2018-08-23T13:13:45.982Z,35.52
2018-08-23T13:16:14.546Z,34.93
2018-08-23T13:18:43.016Z,34.69
2018-08-23T13:21:11.620Z,34.61
2018-08-23T13:23:44.242Z,34.83
2018-08-23T13:26:12.797Z,35.19
2018-08-23T13:28:41.592Z,35.33
2018-08-23T13:31:10.021Z,35.46
2018-08-23T13:33:38.851Z,35.45
2018-08-23T13:36:07.312Z,35.27
2018-08-23T13:38:35.806Z,34.96
2018-08-23T13:41:04.340Z,34.60
2018-08-23T13:43:32.771Z,34.61
2018-08-23T13:46:01.260Z,34.88
2018-08-23T13:48:29.945Z,34.89
2018-08-23T13:50:58.327Z,34.66
2018-08-23T13:53:26.786Z,34.40
2018-08-23T13:55:55.265Z,34.11
2018-08-23T13:58:23.777Z,33.86
2018-08-23T14:00:52.191Z,33.77
2018-08-23T14:03:20.621Z,33.63
2018-08-23T14:05:49.247Z,33.66
2018-08-23T14:08:17.912Z,33.94
2018-08-23T14:10:46.384Z,34.29
2018-08-23T14:13:14.889Z,34.61
2018-08-23T14:15:48.515Z,34.63
2018-08-23T14:18:17.073Z,34.42
2018-08-23T14:20:45.671Z,34.11
2018-08-23T14:23:14.123Z,33.75
2018-08-23T14:25:42.681Z,33.47
2018-08-23T14:30:53.318Z,33.12
2018-08-23T14:33:21.827Z,32.98
2018-08-23T14:35:50.452Z,32.70
2018-08-23T14:38:19.043Z,32.36
2018-08-23T14:40:47.591Z,31.93
2018-08-23T14:43:16.094Z,31.49
2018-08-23T14:45:44.833Z,31.07
2018-08-23T14:48:20.886Z,30.64
2018-08-23T14:50:52.366Z,30.08
2018-08-23T14:53:27.786Z,29.59
2018-08-23T14:56:01.488Z,28.98
2018-08-23T14:58:30.613Z,28.29
2018-08-23T15:00:59.094Z,27.68
2018-08-23T15:03:27.719Z,27.13
2018-08-23T15:05:56.291Z,26.79
2018-08-23T15:08:24.738Z,26.61
2018-08-23T15:10:53.185Z,26.49
2018-08-23T15:13:21.641Z,26.29
2018-08-23T15:15:51.410Z,26.20
2018-08-23T15:18:21.091Z,26.20
2018-08-23T15:20:50.264Z,26.31
2018-08-23T15:23:18.774Z,26.35
2018-08-23T15:25:47.224Z,26.34
2018-08-23T15:28:15.768Z,26.30
2018-08-23T15:30:46.693Z,26.34
2018-08-23T15:33:15.278Z,26.29
2018-08-23T15:35:43.864Z,26.23
2018-08-23T15:38:12.412Z,26.15
2018-08-23T15:40:41.673Z,26.10
2018-08-23T15:43:10.203Z,26.04
2018-08-23T15:45:38.759Z,25.99
2018-08-23T15:48:22.947Z,25.99
2018-08-23T15:50:51.373Z,25.96
2018-08-23T15:53:20.401Z,25.85
2018-08-23T15:55:48.980Z,25.70
2018-08-23T15:58:18.008Z,25.59
2018-08-23T16:00:46.501Z,25.37
2018-08-23T16:03:14.961Z,25.33
2018-08-23T16:05:44.675Z,25.32
2018-08-23T16:08:13.230Z,25.38
2018-08-23T16:10:42.683Z,25.47
2018-08-23T16:13:11.458Z,25.53
2018-08-23T16:15:40.313Z,25.72
2018-08-23T16:18:14.475Z,25.88
2018-08-23T16:20:52.011Z,25.97
2018-08-23T16:23:21.083Z,26.04
2018-08-23T16:25:49.946Z,26.10
2018-08-23T16:28:18.554Z,26.17
2018-08-23T16:30:47.077Z,26.20
2018-08-23T16:33:15.458Z,26.18
2018-08-23T16:35:44.053Z,26.20
2018-08-23T16:38:12.577Z,26.21
2018-08-23T16:40:41.018Z,26.22
2018-08-23T16:43:09.516Z,26.21
2018-08-23T16:45:37.995Z,26.21
2018-08-23T16:48:06.540Z,26.20
2018-08-23T16:50:35.048Z,26.28
2018-08-23T16:53:03.591Z,26.27
2018-08-23T16:55:32.224Z,26.28
2018-08-23T16:58:00.750Z,26.28
2018-08-23T17:00:29.325Z,26.30
2018-08-23T17:02:57.748Z,26.29
2018-08-23T17:05:26.222Z,26.29
2018-08-23T17:07:54.917Z,26.29
2018-08-23T17:10:23.658Z,26.31
2018-08-23T17:12:52.367Z,26.29
2018-08-23T17:15:35.459Z,26.22
2018-08-23T17:18:04.141Z,26.08
2018-08-23T17:20:32.832Z,26.00
2018-08-23T17:23:01.394Z,25.96
2018-08-23T17:25:34.955Z,25.93
2018-08-23T17:28:03.548Z,25.86
2018-08-23T17:30:32.339Z,25.83
2018-08-23T17:33:00.932Z,25.85
2018-08-23T17:35:30.025Z,25.86
2018-08-23T17:37:58.492Z,25.65
2018-08-23T17:40:26.998Z,25.53
2018-08-23T17:42:55.398Z,25.49
2018-08-23T17:45:24.347Z,25.43
2018-08-23T17:47:52.875Z,25.46
2018-08-23T17:50:21.580Z,25.50
2018-08-23T17:52:50.107Z,25.49
2018-08-23T17:55:18.695Z,25.47
2018-08-23T17:57:47.825Z,25.41
2018-08-23T18:00:16.259Z,25.38
2018-08-23T18:02:44.937Z,25.35
2018-08-23T18:05:13.468Z,25.36
2018-08-23T18:07:41.963Z,25.30
2018-08-23T18:10:10.578Z,25.24
2018-08-23T18:12:39.286Z,25.21
2018-08-23T18:15:09.763Z,25.08
2018-08-23T18:17:39.056Z,25.08
2018-08-23T18:20:08.699Z,25.06
2018-08-23T18:22:37.349Z,24.95
2018-08-23T18:25:05.942Z,24.93
2018-08-23T18:27:34.748Z,24.90
2018-08-23T18:30:03.165Z,24.85
2018-08-23T18:32:31.801Z,24.89
2018-08-23T18:35:00.449Z,24.96
2018-08-23T18:37:29.060Z,25.06
2018-08-23T18:39:57.684Z,25.08
2018-08-23T18:42:26.219Z,25.09
2018-08-23T18:45:00.041Z,25.03
2018-08-23T18:47:28.786Z,25.02
2018-08-23T18:49:57.260Z,25.04
2018-08-23T18:52:25.740Z,24.98
2018-08-23T18:54:59.308Z,24.91
2018-08-23T18:57:27.856Z,24.84
2018-08-23T18:59:56.587Z,24.79
2018-08-23T19:02:25.257Z,24.82
2018-08-23T19:04:59.674Z,24.82
2018-08-23T19:07:33.363Z,24.89
2018-08-23T19:10:02.056Z,24.98
2018-08-23T19:12:31.305Z,25.00
2018-08-23T19:15:05.026Z,25.02
2018-08-23T19:17:42.837Z,25.05
2018-08-23T19:20:12.546Z,25.09
2018-08-23T19:22:41.128Z,25.08
2018-08-23T19:25:19.006Z,25.07
2018-08-23T19:27:47.872Z,25.11
2018-08-23T19:30:16.390Z,25.11
2018-08-23T19:32:44.818Z,25.17
2018-08-23T19:35:13.232Z,25.19
2018-08-23T19:37:42.003Z,25.21
2018-08-23T19:40:11.200Z,25.20
2018-08-23T19:42:40.182Z,25.22
2018-08-23T19:45:13.670Z,25.24
2018-08-23T19:47:43.814Z,25.21
2018-08-23T19:50:13.066Z,25.15
2018-08-23T19:52:41.494Z,25.12
2018-08-23T19:55:11.318Z,25.13
2018-08-23T19:57:40.083Z,25.13
2018-08-23T20:00:09.716Z,25.13
2018-08-23T20:02:38.287Z,25.17
2018-08-23T20:05:06.779Z,25.18
2018-08-23T20:07:35.299Z,25.11
2018-08-23T20:10:03.854Z,25.06
2018-08-23T20:12:32.456Z,25.03
2018-08-23T20:15:24.336Z,24.99
2018-08-23T20:17:53.896Z,24.99
2018-08-23T20:20:22.371Z,25.02
2018-08-23T20:22:50.838Z,24.99
2018-08-23T20:25:20.421Z,24.94
2018-08-23T20:27:49.080Z,24.99
2018-08-23T20:30:17.583Z,25.04
2018-08-23T20:32:46.063Z,25.08
2018-08-23T20:35:14.552Z,25.07
2018-08-23T20:37:43.206Z,25.09
2018-08-23T20:40:11.760Z,25.10
2018-08-23T20:42:40.224Z,25.12
2018-08-23T20:45:08.788Z,25.14
2018-08-23T20:47:37.233Z,25.13
2018-08-23T20:50:05.731Z,25.14
2018-08-23T20:52:34.218Z,25.11
2018-08-23T20:55:02.861Z,25.10
2018-08-23T20:57:31.286Z,25.07
2018-08-23T20:59:59.739Z,25.04
2018-08-23T21:02:28.180Z,25.03
2018-08-23T21:04:56.732Z,24.99
2018-08-23T21:07:25.162Z,24.97
2018-08-23T21:09:53.772Z,24.98
2018-08-23T21:12:22.455Z,24.96
2018-08-23T21:14:50.868Z,24.96
2018-08-23T21:17:19.425Z,24.92
2018-08-23T21:19:48.016Z,24.88
2018-08-23T21:22:16.479Z,24.86
2018-08-23T21:24:45.338Z,24.83
2018-08-23T21:27:13.776Z,24.81
2018-08-23T21:29:42.228Z,24.77
2018-08-23T21:32:11.012Z,24.70
2018-08-23T21:34:39.392Z,24.64
2018-08-23T21:37:07.854Z,24.63
2018-08-23T21:39:36.392Z,24.57
2018-08-23T21:42:04.862Z,24.53
2018-08-23T21:44:33.241Z,24.56
2018-08-23T21:47:07.317Z,24.52
2018-08-23T21:49:35.812Z,24.48
2018-08-23T21:52:04.236Z,24.43
2018-08-23T21:54:32.696Z,24.31
2018-08-23T21:57:01.235Z,24.20
2018-08-23T21:59:29.914Z,24.13
2018-08-23T22:02:33.206Z,24.10
2018-08-23T22:05:01.666Z,24.07
2018-08-23T22:07:30.096Z,24.03
2018-08-23T22:09:58.586Z,24.03
2018-08-23T22:12:27.037Z,24.04
2018-08-23T22:14:56.028Z,24.03
2018-08-23T22:17:25.174Z,23.99
2018-08-23T22:19:54.661Z,23.92
2018-08-23T22:22:23.078Z,23.88
2018-08-23T22:24:51.606Z,23.86
2018-08-23T22:27:20.238Z,23.82
2018-08-23T22:29:48.728Z,23.81
2018-08-23T22:32:17.263Z,23.76
2018-08-23T22:34:45.732Z,23.72
2018-08-23T22:37:15.386Z,23.70
2018-08-23T22:39:44.231Z,23.70
2018-08-23T22:42:12.829Z,23.71
2018-08-23T22:44:41.506Z,23.68
2018-08-23T22:47:10.044Z,23.65
2018-08-23T22:49:38.518Z,23.63
2018-08-23T22:52:06.881Z,23.63
2018-08-23T22:54:35.299Z,23.61
2018-08-23T22:57:03.758Z,23.59
2018-08-23T22:59:32.280Z,23.56
2018-08-23T23:02:00.867Z,23.54
2018-08-23T23:04:29.699Z,23.47
2018-08-23T23:06:59.117Z,23.44
2018-08-23T23:09:27.622Z,23.43
2018-08-23T23:11:56.466Z,23.43
2018-08-23T23:14:24.937Z,23.43
2018-08-23T23:16:55.094Z,23.40
2018-08-23T23:19:24.181Z,23.41
2018-08-23T23:21:52.566Z,23.39
2018-08-23T23:24:26.208Z,23.39
2018-08-23T23:26:55.645Z,23.37
2018-08-23T23:29:24.491Z,23.32
2018-08-23T23:31:52.905Z,23.30
2018-08-23T23:34:21.296Z,23.32
2018-08-23T23:36:49.723Z,23.26
2018-08-23T23:39:18.472Z,23.26
2018-08-23T23:41:46.896Z,23.23
2018-08-23T23:44:15.426Z,23.21
2018-08-23T23:46:53.245Z,23.20
2018-08-23T23:49:21.795Z,23.18
2018-08-23T23:51:50.685Z,23.17
2018-08-23T23:54:19.105Z,23.16
2018-08-23T23:56:47.618Z,23.15
2018-08-23T23:59:16.024Z,23.16
